createdAt,value
2019-04-30T00:00:39.867Z,11.35
2019-04-30T00:01:37.932Z,11.44
2019-04-30T00:02:39.629Z,11.36
2019-04-30T00:03:35.248Z,11.30
2019-04-30T00:04:40.292Z,11.31
2019-04-30T00:05:35.319Z,11.33
2019-04-30T00:06:39.333Z,11.36
2019-04-30T00:07:38.932Z,11.35
2019-04-30T00:08:39.046Z,11.48
2019-04-30T00:09:35.432Z,11.49
2019-04-30T00:10:39.996Z,11.45
2019-04-30T00:11:36.236Z,11.46
2019-04-30T00:12:39.523Z,11.51
2019-04-30T00:14:00.433Z,11.38
2019-04-30T00:14:38.635Z,11.46
2019-04-30T00:15:35.931Z,11.46
2019-04-30T00:16:39.926Z,11.53
2019-04-30T00:18:01.596Z,11.46
2019-04-30T00:18:40.888Z,11.45
2019-04-30T00:19:59.873Z,11.54
2019-04-30T00:20:38.611Z,11.48
2019-04-30T00:21:36.932Z,11.49
2019-04-30T00:22:39.373Z,11.42
2019-04-30T00:23:40.430Z,11.42
2019-04-30T00:26:29.667Z,11.38
2019-04-30T00:27:08.680Z,11.35
2019-04-30T00:28:29.674Z,11.41
2019-04-30T00:29:33.178Z,11.44
2019-04-30T00:31:40.539Z,11.45
2019-04-30T00:32:43.811Z,11.53
2019-04-30T00:33:40.549Z,11.49
2019-04-30T00:34:48.017Z,11.33
2019-04-30T00:35:41.048Z,11.24
2019-04-30T00:36:41.045Z,11.28
2019-04-30T00:37:41.045Z,11.35
2019-04-30T00:38:41.543Z,11.21
2019-04-30T00:39:45.720Z,11.20
2019-04-30T00:40:45.141Z,11.24
2019-04-30T00:41:45.909Z,11.16
2019-04-30T00:42:42.046Z,11.17
2019-04-30T00:43:47.143Z,11.11
2019-04-30T00:45:06.679Z,11.02
2019-04-30T00:45:47.626Z,10.98
2019-04-30T00:46:42.545Z,10.99
2019-04-30T00:47:44.513Z,10.94
2019-04-30T00:48:42.543Z,10.94
2019-04-30T00:49:42.543Z,10.99
2019-04-30T00:51:17.819Z,10.95
2019-04-30T00:51:42.261Z,10.93
2019-04-30T00:54:15.238Z,10.91
2019-04-30T00:55:15.031Z,10.76
2019-04-30T00:56:19.843Z,10.84
2019-04-30T00:58:46.248Z,10.81
2019-04-30T00:59:47.959Z,10.80
2019-04-30T01:00:46.248Z,10.83
2019-04-30T01:01:50.247Z,10.76
2019-04-30T01:03:09.334Z,10.58
2019-04-30T01:03:49.552Z,10.66
2019-04-30T01:05:09.076Z,10.55
2019-04-30T01:06:10.189Z,10.54
2019-04-30T01:06:50.757Z,10.44
2019-04-30T01:08:08.260Z,10.44
2019-04-30T01:08:47.250Z,10.42
2019-04-30T01:09:49.815Z,10.36
2019-04-30T01:11:10.750Z,10.28
2019-04-30T01:11:51.746Z,10.22
2019-04-30T01:12:50.236Z,10.17
2019-04-30T01:13:52.580Z,10.11
2019-04-30T01:15:11.116Z,10.20
2019-04-30T01:15:51.070Z,10.14
2019-04-30T01:16:49.352Z,10.13
2019-04-30T01:17:53.801Z,10.18
2019-04-30T01:19:26.605Z,10.07
2019-04-30T01:19:51.165Z,10.20
2019-04-30T01:20:48.828Z,10.04
2019-04-30T01:21:50.828Z,9.98
2019-04-30T01:22:52.746Z,9.95
2019-04-30T01:24:10.246Z,9.89
2019-04-30T01:24:49.685Z,9.85
2019-04-30T01:25:51.320Z,9.73
2019-04-30T01:26:50.543Z,9.73
2019-04-30T01:27:49.745Z,9.68
2019-04-30T01:28:53.831Z,9.73
2019-04-30T01:29:49.753Z,9.68
2019-04-30T01:30:53.982Z,9.67
2019-04-30T01:31:50.245Z,9.70
2019-04-30T01:32:56.434Z,9.74
2019-04-30T01:33:50.245Z,9.73
2019-04-30T01:34:54.097Z,9.60
2019-04-30T01:35:50.745Z,9.62
2019-04-30T01:36:52.208Z,9.65
2019-04-30T01:37:50.745Z,9.53
2019-04-30T01:38:52.558Z,9.55
2019-04-30T01:39:55.251Z,9.58
2019-04-30T01:40:51.293Z,9.65
2019-04-30T01:41:51.242Z,9.60
2019-04-30T01:44:25.922Z,9.50
2019-04-30T01:45:28.178Z,9.49
2019-04-30T01:46:22.984Z,9.49
2019-04-30T01:48:54.721Z,9.52
2019-04-30T01:49:55.940Z,9.48
2019-04-30T01:50:58.689Z,9.50
2019-04-30T01:51:57.250Z,9.42
2019-04-30T01:52:55.227Z,9.48
2019-04-30T01:53:55.228Z,9.52
2019-04-30T01:54:55.229Z,9.44
2019-04-30T01:55:59.315Z,9.48
2019-04-30T01:56:55.725Z,9.41
2019-04-30T01:57:55.729Z,9.40
2019-04-30T01:58:55.736Z,9.44
2019-04-30T02:01:31.173Z,9.34
2019-04-30T02:02:28.614Z,9.42
2019-04-30T02:03:29.173Z,9.23
2019-04-30T02:04:28.973Z,9.24
2019-04-30T02:05:28.735Z,9.32
2019-04-30T02:06:31.967Z,9.31
2019-04-30T02:07:28.761Z,9.22
2019-04-30T02:08:29.555Z,9.22
2019-04-30T02:09:28.721Z,9.23
2019-04-30T02:10:28.639Z,9.16
2019-04-30T02:11:53.471Z,9.23
2019-04-30T02:12:29.727Z,9.20
2019-04-30T02:13:29.462Z,9.12
2019-04-30T02:14:28.967Z,9.16
2019-04-30T02:15:29.304Z,9.10
2019-04-30T02:16:29.466Z,9.06
2019-04-30T02:17:33.466Z,8.98
2019-04-30T02:18:29.740Z,8.94
2019-04-30T02:19:31.171Z,8.94
2019-04-30T02:20:50.966Z,8.94
2019-04-30T02:21:31.813Z,8.91
2019-04-30T02:22:31.249Z,8.96
2019-04-30T02:23:34.474Z,8.98
2019-04-30T02:24:30.465Z,9.00
2019-04-30T02:27:01.828Z,8.93
2019-04-30T02:28:01.853Z,8.97
2019-04-30T02:29:05.843Z,8.93
2019-04-30T02:31:54.577Z,8.89
2019-04-30T02:32:33.582Z,8.79
2019-04-30T02:33:33.582Z,8.82
2019-04-30T02:34:59.812Z,8.78
2019-04-30T02:35:55.080Z,8.75
2019-04-30T02:36:34.085Z,8.82
2019-04-30T02:37:35.555Z,8.67
2019-04-30T02:38:34.584Z,8.79
2019-04-30T02:39:40.165Z,8.75
2019-04-30T02:40:34.589Z,8.78
2019-04-30T02:41:34.585Z,8.73
2019-04-30T02:42:36.057Z,8.65
2019-04-30T02:43:35.084Z,8.58
2019-04-30T02:44:40.654Z,8.61
2019-04-30T02:45:35.080Z,8.52
2019-04-30T02:48:29.491Z,8.63
2019-04-30T02:49:06.823Z,8.60
2019-04-30T02:50:18.153Z,8.46
2019-04-30T02:52:40.199Z,8.55
2019-04-30T02:53:40.227Z,8.40
2019-04-30T02:54:39.589Z,8.39
2019-04-30T02:55:44.496Z,8.43
2019-04-30T02:57:00.065Z,8.39
2019-04-30T02:57:40.065Z,8.36
2019-04-30T02:58:40.979Z,8.34
2019-04-30T02:59:40.259Z,8.32
2019-04-30T03:00:39.561Z,8.29
2019-04-30T03:02:04.090Z,8.25
2019-04-30T03:02:39.657Z,8.24
2019-04-30T03:03:42.659Z,8.24
2019-04-30T03:04:42.061Z,8.24
2019-04-30T03:05:40.060Z,8.36
2019-04-30T03:07:05.061Z,8.36
2019-04-30T03:08:01.561Z,8.32
2019-04-30T03:08:42.495Z,8.29
2019-04-30T03:09:40.564Z,8.28
2019-04-30T03:10:40.613Z,8.22
2019-04-30T03:11:41.193Z,8.24
2019-04-30T03:12:44.058Z,8.22
2019-04-30T03:13:42.802Z,8.22
2019-04-30T03:14:41.061Z,8.27
2019-04-30T03:15:42.502Z,8.22
2019-04-30T03:16:41.561Z,8.24
2019-04-30T03:18:06.060Z,8.31
2019-04-30T03:18:41.560Z,8.24
2019-04-30T03:19:41.577Z,8.27
2019-04-30T03:20:42.069Z,8.14
2019-04-30T03:22:05.494Z,8.21
2019-04-30T03:22:42.065Z,8.20
2019-04-30T03:23:46.062Z,8.20
2019-04-30T03:24:43.082Z,8.18
2019-04-30T03:25:42.559Z,8.10
2019-04-30T03:26:42.564Z,8.13
2019-04-30T03:27:42.677Z,8.07
2019-04-30T03:28:43.069Z,8.03
2019-04-30T03:29:46.058Z,8.07
2019-04-30T03:30:43.060Z,8.06
2019-04-30T03:31:45.375Z,8.00
2019-04-30T03:32:45.419Z,8.04
2019-04-30T03:33:43.613Z,8.04
2019-04-30T03:34:51.658Z,8.03
2019-04-30T03:35:48.242Z,8.10
2019-04-30T03:37:06.016Z,8.07
2019-04-30T03:37:44.059Z,8.03
2019-04-30T03:38:44.075Z,8.00
2019-04-30T03:39:49.352Z,7.92
2019-04-30T03:40:44.058Z,7.92
2019-04-30T03:42:05.558Z,7.95
2019-04-30T03:44:21.795Z,7.96
2019-04-30T03:45:20.412Z,7.96
2019-04-30T03:46:15.936Z,7.84
2019-04-30T03:47:16.441Z,7.92
2019-04-30T03:48:16.430Z,7.92
2019-04-30T03:49:16.435Z,7.92
2019-04-30T03:50:20.431Z,7.92
2019-04-30T03:52:50.351Z,7.89
2019-04-30T03:53:50.090Z,7.86
2019-04-30T03:54:49.557Z,7.82
2019-04-30T03:56:14.172Z,7.88
2019-04-30T03:56:50.220Z,7.89
2019-04-30T03:57:51.939Z,7.85
2019-04-30T03:58:50.293Z,7.88
2019-04-30T03:59:50.062Z,7.85
2019-04-30T04:00:50.267Z,7.81
2019-04-30T04:01:54.135Z,7.84
2019-04-30T04:02:50.173Z,7.73
2019-04-30T04:03:50.175Z,7.74
2019-04-30T04:04:52.592Z,7.76
2019-04-30T04:05:51.646Z,7.74
2019-04-30T04:06:54.172Z,7.60
2019-04-30T04:07:53.179Z,7.66
2019-04-30T04:08:50.671Z,7.66
2019-04-30T04:09:50.678Z,7.62
2019-04-30T04:10:53.021Z,7.55
2019-04-30T04:11:52.604Z,7.62
2019-04-30T04:12:54.168Z,7.54
2019-04-30T04:13:51.167Z,7.54
2019-04-30T04:14:51.339Z,7.54
2019-04-30T04:15:51.168Z,7.58
2019-04-30T04:16:54.603Z,7.51
2019-04-30T04:18:16.168Z,7.54
2019-04-30T04:18:51.677Z,7.62
2019-04-30T04:19:51.668Z,7.55
2019-04-30T04:21:07.084Z,7.67
2019-04-30T04:21:52.169Z,7.45
2019-04-30T04:26:20.411Z,7.58
2019-04-30T04:26:59.790Z,7.58
2019-04-30T04:28:04.859Z,7.62
2019-04-30T04:30:31.087Z,7.66
2019-04-30T04:31:31.108Z,7.63
2019-04-30T04:32:31.366Z,7.71
2019-04-30T04:33:56.095Z,7.62
2019-04-30T04:34:31.595Z,7.62
2019-04-30T04:35:31.595Z,7.63
2019-04-30T04:36:31.594Z,7.69
2019-04-30T04:37:53.098Z,7.67
2019-04-30T04:38:56.594Z,7.60
2019-04-30T04:39:32.103Z,7.76
2019-04-30T04:40:32.095Z,7.74
2019-04-30T04:41:53.609Z,7.67
2019-04-30T04:42:53.598Z,7.79
2019-04-30T04:43:32.604Z,7.69
2019-04-30T04:44:36.598Z,7.63
2019-04-30T04:45:55.566Z,7.66
2019-04-30T04:47:00.232Z,7.70
2019-04-30T04:47:54.096Z,7.69
2019-04-30T04:48:33.095Z,7.69
2019-04-30T04:49:36.592Z,7.81
2019-04-30T04:50:35.593Z,7.66
2019-04-30T04:51:38.545Z,7.76
2019-04-30T04:52:33.600Z,7.74
2019-04-30T04:55:10.030Z,7.81
2019-04-30T04:56:05.332Z,7.74
2019-04-30T04:57:14.824Z,7.74
2019-04-30T04:58:26.831Z,7.81
2019-04-30T04:59:26.831Z,7.88
2019-04-30T05:00:11.771Z,7.88
2019-04-30T05:01:28.826Z,7.86
2019-04-30T05:02:32.192Z,7.92
2019-04-30T05:03:06.335Z,7.92
2019-04-30T05:04:06.341Z,7.84
2019-04-30T05:05:31.850Z,7.89
2019-04-30T05:06:06.830Z,7.86
2019-04-30T05:07:06.830Z,8.04
2019-04-30T05:08:08.458Z,7.96
2019-04-30T05:09:06.831Z,7.96
2019-04-30T05:10:31.838Z,7.99
2019-04-30T05:11:09.573Z,8.04
2019-04-30T05:12:09.330Z,8.09
2019-04-30T05:13:09.085Z,8.10
2019-04-30T05:14:08.382Z,8.07
2019-04-30T05:15:09.467Z,8.02
2019-04-30T05:16:32.840Z,8.18
2019-04-30T05:17:09.450Z,8.10
2019-04-30T05:18:09.136Z,8.20
2019-04-30T05:19:32.284Z,8.09
2019-04-30T05:21:44.832Z,8.20
2019-04-30T05:22:39.653Z,8.18
2019-04-30T05:23:42.616Z,8.31
2019-04-30T05:24:40.864Z,8.28
2019-04-30T05:25:40.160Z,8.31
2019-04-30T05:26:40.153Z,8.40
2019-04-30T05:27:44.152Z,8.36
2019-04-30T05:28:40.653Z,8.40
2019-04-30T05:29:43.605Z,8.36
2019-04-30T05:30:40.658Z,8.50
2019-04-30T05:31:40.655Z,8.63
2019-04-30T05:32:41.155Z,8.58
2019-04-30T05:33:44.160Z,8.71
2019-04-30T05:34:41.159Z,8.80
2019-04-30T05:35:41.153Z,8.86
2019-04-30T05:36:41.653Z,8.76
2019-04-30T05:37:41.653Z,8.85
2019-04-30T05:39:08.277Z,8.80
2019-04-30T05:39:41.651Z,8.97
2019-04-30T05:40:42.668Z,8.97
2019-04-30T05:41:42.153Z,8.94
2019-04-30T05:42:42.152Z,8.88
2019-04-30T05:43:45.650Z,8.93
2019-04-30T05:44:42.654Z,8.97
2019-04-30T05:45:42.661Z,8.98
2019-04-30T05:46:42.652Z,9.04
2019-04-30T05:47:42.652Z,9.03
2019-04-30T05:49:08.999Z,9.04
2019-04-30T05:49:42.374Z,9.04
2019-04-30T05:50:43.157Z,9.10
2019-04-30T05:51:52.865Z,9.17
2019-04-30T05:52:43.587Z,9.24
2019-04-30T05:53:44.152Z,9.26
2019-04-30T05:54:48.600Z,9.27
2019-04-30T05:55:43.652Z,9.42
2019-04-30T05:56:43.651Z,9.38
2019-04-30T05:57:53.889Z,9.41
2019-04-30T05:58:44.089Z,9.42
2019-04-30T05:59:49.086Z,9.48
2019-04-30T06:00:44.152Z,9.48
2019-04-30T06:01:48.699Z,9.40
2019-04-30T06:02:46.651Z,9.48
2019-04-30T06:03:44.651Z,9.55
2019-04-30T06:04:44.656Z,9.50
2019-04-30T06:06:11.463Z,9.58
2019-04-30T06:06:45.151Z,9.60
2019-04-30T06:07:45.151Z,9.62
2019-04-30T06:08:45.151Z,9.86
2019-04-30T06:09:45.653Z,9.86
2019-04-30T06:12:18.779Z,10.14
2019-04-30T06:13:18.914Z,10.09
2019-04-30T06:14:48.688Z,10.10
2019-04-30T06:15:19.361Z,10.04
2019-04-30T06:16:41.513Z,10.09
2019-04-30T06:19:10.006Z,10.31
2019-04-30T06:19:51.455Z,10.28
2019-04-30T06:20:49.011Z,10.34
2019-04-30T06:22:04.833Z,10.42
2019-04-30T06:23:10.509Z,10.32
2019-04-30T06:25:56.423Z,10.35
2019-04-30T06:26:20.816Z,10.28
2019-04-30T06:27:25.005Z,10.28
2019-04-30T06:28:21.004Z,10.18
2019-04-30T06:29:21.506Z,10.31
2019-04-30T06:30:42.508Z,10.28
2019-04-30T06:31:31.802Z,10.42
2019-04-30T06:32:22.965Z,10.43
2019-04-30T06:33:25.005Z,10.51
2019-04-30T06:34:22.005Z,10.55
2019-04-30T06:35:22.031Z,10.66
2019-04-30T06:36:22.005Z,10.70
2019-04-30T06:37:22.005Z,10.65
2019-04-30T06:38:26.004Z,10.65
2019-04-30T06:39:43.506Z,10.76
2019-04-30T06:40:22.504Z,10.72
2019-04-30T06:41:43.504Z,10.88
2019-04-30T06:42:44.004Z,10.98
2019-04-30T06:43:29.023Z,11.02
2019-04-30T06:44:37.254Z,11.01
2019-04-30T06:45:25.967Z,10.94
2019-04-30T06:46:44.515Z,10.99
2019-04-30T06:48:54.744Z,11.21
2019-04-30T06:50:01.320Z,11.24
2019-04-30T06:52:26.459Z,11.16
2019-04-30T06:53:26.467Z,11.24
2019-04-30T06:54:28.637Z,11.28
2019-04-30T06:55:51.467Z,11.38
2019-04-30T06:58:11.181Z,11.56
2019-04-30T06:58:59.008Z,11.53
2019-04-30T07:00:20.826Z,11.62
2019-04-30T07:01:25.275Z,11.69
2019-04-30T07:01:59.057Z,11.75
2019-04-30T07:02:59.139Z,11.79
2019-04-30T07:04:00.882Z,11.94
2019-04-30T07:04:59.340Z,12.03
2019-04-30T07:06:02.844Z,12.11
2019-04-30T07:06:59.352Z,12.13
2019-04-30T07:08:04.315Z,12.13
2019-04-30T07:09:20.847Z,12.19
2019-04-30T07:10:01.194Z,12.21
2019-04-30T07:11:07.435Z,12.11
2019-04-30T07:12:04.867Z,12.12
2019-04-30T07:13:21.340Z,12.19
2019-04-30T07:14:00.350Z,12.25
2019-04-30T07:15:21.343Z,12.36
2019-04-30T07:16:00.338Z,12.51
2019-04-30T07:17:25.350Z,12.38
2019-04-30T07:18:14.840Z,12.37
2019-04-30T07:19:00.847Z,12.41
2019-04-30T07:20:00.188Z,12.46
2019-04-30T07:21:00.840Z,12.58
2019-04-30T07:22:40.121Z,12.71
2019-04-30T07:23:04.274Z,12.70
2019-04-30T07:24:22.361Z,12.69
2019-04-30T07:25:01.360Z,12.70
2019-04-30T07:26:02.796Z,12.59
2019-04-30T07:28:44.695Z,12.89
2019-04-30T07:29:33.049Z,12.94
2019-04-30T07:30:33.047Z,12.95
2019-04-30T07:33:25.785Z,13.16
2019-04-30T07:34:31.713Z,13.14
2019-04-30T07:35:04.791Z,13.09
2019-04-30T07:36:05.297Z,13.12
2019-04-30T07:37:26.326Z,13.24
2019-04-30T07:38:05.291Z,13.28
2019-04-30T07:39:10.072Z,13.22
2019-04-30T07:41:37.027Z,13.13
2019-04-30T07:42:43.933Z,13.17
2019-04-30T07:43:39.310Z,13.25
2019-04-30T07:44:41.035Z,13.39
2019-04-30T07:45:39.738Z,13.51
2019-04-30T07:46:43.852Z,13.50
2019-04-30T07:47:39.479Z,13.59
2019-04-30T07:48:39.962Z,13.72
2019-04-30T07:50:02.543Z,13.84
2019-04-30T07:52:34.236Z,14.09
2019-04-30T07:53:11.297Z,14.02
2019-04-30T07:54:30.283Z,14.04
2019-04-30T07:55:12.783Z,13.88
2019-04-30T07:56:37.233Z,14.01
2019-04-30T07:57:11.244Z,14.11
2019-04-30T07:58:09.783Z,14.19
2019-04-30T07:59:33.289Z,14.36
2019-04-30T08:00:35.284Z,14.39
2019-04-30T08:01:12.283Z,14.34
2019-04-30T08:02:14.349Z,14.16
2019-04-30T08:04:42.023Z,14.20
2019-04-30T08:05:45.591Z,14.09
2019-04-30T08:06:42.069Z,14.19
2019-04-30T08:07:42.553Z,14.20
2019-04-30T08:08:42.568Z,14.36
2019-04-30T08:09:42.603Z,14.46
2019-04-30T08:10:42.538Z,14.52
2019-04-30T08:11:46.525Z,14.42
2019-04-30T08:13:09.984Z,14.46
2019-04-30T08:13:43.490Z,14.54
2019-04-30T08:14:43.042Z,14.66
2019-04-30T08:17:39.292Z,14.74
2019-04-30T08:18:14.787Z,14.79
2019-04-30T08:19:14.793Z,14.86
2019-04-30T08:21:48.580Z,15.01
2019-04-30T08:22:51.052Z,15.00
2019-04-30T08:23:48.816Z,15.00
2019-04-30T08:24:49.121Z,14.86
2019-04-30T08:25:48.829Z,14.78
2019-04-30T08:27:09.776Z,14.82
2019-04-30T08:27:49.289Z,14.86
2019-04-30T08:28:51.046Z,14.83
2019-04-30T08:30:21.436Z,14.87
2019-04-30T08:30:54.042Z,14.94
2019-04-30T08:31:48.987Z,14.95
2019-04-30T08:32:49.996Z,14.74
2019-04-30T08:33:52.038Z,14.72
2019-04-30T08:34:50.154Z,14.85
2019-04-30T08:35:49.944Z,14.80
2019-04-30T08:36:48.878Z,14.79
2019-04-30T08:37:49.743Z,14.86
2019-04-30T08:38:49.635Z,14.97
2019-04-30T08:39:53.040Z,14.79
2019-04-30T08:40:56.244Z,14.98
2019-04-30T08:41:49.540Z,15.09
2019-04-30T08:42:49.771Z,15.18
2019-04-30T08:43:49.817Z,15.18
2019-04-30T08:44:49.541Z,15.00
2019-04-30T08:45:53.042Z,15.18
2019-04-30T08:48:21.409Z,15.38
2019-04-30T08:49:21.607Z,15.41
2019-04-30T08:50:21.688Z,15.48
2019-04-30T08:51:25.934Z,15.33
2019-04-30T08:52:21.959Z,15.44
2019-04-30T08:53:42.914Z,15.51
2019-04-30T08:54:21.922Z,15.46
2019-04-30T08:55:43.416Z,15.56
2019-04-30T08:56:22.432Z,15.43
2019-04-30T08:57:25.920Z,15.43
2019-04-30T08:58:22.415Z,15.51
2019-04-30T08:59:22.926Z,15.52
2019-04-30T09:00:22.913Z,15.62
2019-04-30T09:01:22.915Z,15.71
2019-04-30T09:02:28.865Z,15.62
2019-04-30T09:03:44.415Z,15.64
2019-04-30T09:04:23.415Z,15.59
2019-04-30T09:05:44.415Z,15.68
2019-04-30T09:06:23.421Z,15.77
2019-04-30T09:07:48.741Z,15.98
2019-04-30T09:08:44.915Z,15.98
2019-04-30T09:09:44.915Z,15.96
2019-04-30T09:10:44.915Z,15.99
2019-04-30T09:12:59.918Z,16.36
2019-04-30T09:13:55.672Z,16.48
2019-04-30T09:16:29.343Z,16.47
2019-04-30T09:17:29.596Z,16.48
2019-04-30T09:18:33.352Z,16.50
2019-04-30T09:19:49.141Z,16.54
2019-04-30T09:22:02.229Z,16.70
2019-04-30T09:22:59.645Z,16.69
2019-04-30T09:24:02.802Z,16.73
2019-04-30T09:25:20.795Z,16.65
2019-04-30T09:26:23.230Z,16.84
2019-04-30T09:26:59.795Z,16.80
2019-04-30T09:27:59.799Z,16.73
2019-04-30T09:29:04.299Z,16.80
2019-04-30T09:30:00.296Z,16.96
2019-04-30T09:31:00.297Z,16.99
2019-04-30T09:32:00.304Z,16.88
2019-04-30T09:33:23.230Z,16.85
2019-04-30T09:34:01.143Z,16.87
2019-04-30T09:36:35.511Z,16.87
2019-04-30T09:37:35.509Z,16.88
2019-04-30T09:38:35.509Z,16.96
2019-04-30T09:39:36.009Z,17.02
2019-04-30T09:40:41.619Z,17.00
2019-04-30T09:43:08.947Z,17.02
2019-04-30T09:44:10.016Z,16.99
2019-04-30T09:45:08.999Z,17.12
2019-04-30T09:46:19.146Z,17.30
2019-04-30T09:47:08.869Z,17.24
2019-04-30T09:49:41.403Z,17.14
2019-04-30T09:50:39.685Z,16.99
2019-04-30T09:52:09.053Z,17.06
2019-04-30T09:52:42.421Z,17.09
2019-04-30T09:53:40.446Z,17.21
2019-04-30T09:56:11.391Z,17.21
2019-04-30T09:57:15.396Z,17.28
2019-04-30T09:58:17.211Z,17.51
2019-04-30T09:59:13.898Z,17.39
2019-04-30T10:00:11.900Z,17.40
2019-04-30T10:01:11.900Z,17.51
2019-04-30T10:02:15.899Z,17.68
2019-04-30T10:03:12.709Z,17.74
2019-04-30T10:04:13.660Z,17.71
2019-04-30T10:05:13.053Z,17.68
2019-04-30T10:06:12.398Z,17.68
2019-04-30T10:07:12.904Z,17.68
2019-04-30T10:09:50.706Z,17.87
2019-04-30T10:10:48.643Z,17.87
2019-04-30T10:11:49.850Z,17.94
2019-04-30T10:13:09.594Z,17.87
2019-04-30T10:13:52.099Z,18.04
2019-04-30T10:14:49.476Z,18.07
2019-04-30T10:15:50.197Z,18.01
2019-04-30T10:18:20.352Z,17.83
2019-04-30T10:22:47.318Z,17.71
2019-04-30T10:23:47.327Z,17.68
2019-04-30T10:24:49.308Z,17.80
2019-04-30T10:25:51.331Z,17.79
2019-04-30T10:27:13.084Z,17.87
2019-04-30T10:27:47.333Z,17.96
2019-04-30T10:28:49.260Z,18.17
2019-04-30T10:29:47.043Z,18.26
2019-04-30T10:30:52.261Z,18.21
2019-04-30T10:31:51.325Z,18.16
2019-04-30T10:33:10.004Z,18.25
2019-04-30T10:33:49.263Z,18.26
2019-04-30T10:34:48.326Z,18.16
2019-04-30T10:35:49.569Z,17.94
2019-04-30T10:36:52.329Z,17.79
2019-04-30T10:37:48.825Z,17.76
2019-04-30T10:38:59.550Z,17.80
2019-04-30T10:39:50.269Z,17.92
2019-04-30T10:43:55.466Z,18.38
2019-04-30T10:44:55.474Z,18.34
2019-04-30T10:45:55.474Z,18.41
2019-04-30T10:48:31.231Z,18.71
2019-04-30T10:49:29.102Z,18.75
2019-04-30T10:50:27.250Z,18.71
2019-04-30T10:51:49.710Z,18.91
2019-04-30T10:52:29.249Z,19.01
2019-04-30T10:53:27.737Z,18.82
2019-04-30T10:54:31.236Z,18.89
2019-04-30T10:55:49.236Z,18.97
2019-04-30T10:56:29.121Z,18.99
2019-04-30T10:57:29.708Z,19.06
2019-04-30T10:58:28.259Z,19.12
2019-04-30T10:59:32.236Z,19.07
2019-04-30T11:00:28.742Z,19.24
2019-04-30T11:01:29.172Z,19.23
2019-04-30T11:02:31.128Z,19.35
2019-04-30T11:03:29.238Z,19.45
2019-04-30T11:04:53.785Z,19.38
2019-04-30T11:05:29.333Z,19.38
2019-04-30T11:06:29.234Z,19.52
2019-04-30T11:07:29.242Z,19.47
2019-04-30T11:08:28.840Z,19.46
2019-04-30T11:09:50.743Z,19.35
2019-04-30T11:10:33.236Z,19.24
2019-04-30T11:11:30.660Z,19.10
2019-04-30T11:12:51.238Z,19.34
2019-04-30T11:13:51.237Z,19.45
2019-04-30T11:14:30.237Z,19.06
2019-04-30T11:15:54.737Z,18.87
2019-04-30T11:16:51.945Z,18.93
2019-04-30T11:17:33.015Z,19.02
2019-04-30T11:18:30.943Z,19.12
2019-04-30T11:19:30.932Z,19.10
2019-04-30T11:20:59.621Z,19.13
2019-04-30T11:21:31.351Z,19.10
2019-04-30T11:22:31.474Z,19.31
2019-04-30T11:23:31.357Z,19.38
2019-04-30T11:24:38.176Z,19.52
2019-04-30T11:25:31.775Z,19.52
2019-04-30T11:26:36.092Z,19.72
2019-04-30T11:27:32.035Z,19.82
2019-04-30T11:28:32.479Z,19.75
2019-04-30T11:29:32.492Z,19.89
2019-04-30T11:30:32.458Z,20.07
2019-04-30T11:31:32.491Z,20.26
2019-04-30T11:32:35.907Z,20.56
2019-04-30T11:33:32.983Z,20.97
2019-04-30T11:34:32.739Z,21.40
2019-04-30T11:35:32.739Z,21.56
2019-04-30T11:36:33.236Z,21.68
2019-04-30T11:39:29.830Z,22.11
2019-04-30T11:40:09.929Z,22.21
2019-04-30T11:41:32.898Z,22.51
2019-04-30T11:43:46.256Z,22.86
2019-04-30T11:44:41.696Z,23.15
2019-04-30T11:45:40.761Z,23.68
2019-04-30T11:46:40.762Z,23.99
2019-04-30T11:48:02.262Z,24.09
2019-04-30T11:48:41.264Z,24.37
2019-04-30T11:49:45.264Z,24.26
2019-04-30T11:50:41.262Z,24.56
2019-04-30T11:54:54.120Z,24.24
2019-04-30T11:55:46.483Z,24.66
2019-04-30T11:56:44.479Z,24.67
2019-04-30T11:57:46.980Z,24.67
2019-04-30T11:59:08.686Z,24.75
2019-04-30T11:59:44.977Z,24.94
2019-04-30T12:00:49.498Z,24.90
2019-04-30T12:01:46.442Z,25.36
2019-04-30T12:02:46.436Z,25.85
2019-04-30T12:03:45.478Z,25.81
2019-04-30T12:04:45.484Z,25.71
2019-04-30T12:05:49.485Z,25.76
2019-04-30T12:06:46.013Z,25.49
2019-04-30T12:07:45.979Z,25.89
2019-04-30T12:08:45.978Z,26.00
2019-04-30T12:11:21.255Z,25.53
2019-04-30T12:12:18.960Z,25.82
2019-04-30T12:13:38.753Z,26.16
2019-04-30T12:14:40.700Z,26.47
2019-04-30T12:15:40.190Z,26.60
2019-04-30T12:16:18.669Z,26.83
2019-04-30T12:17:22.254Z,26.96
2019-04-30T12:18:19.688Z,26.96
2019-04-30T12:20:50.516Z,26.83
2019-04-30T12:23:25.420Z,26.81
2019-04-30T12:24:21.919Z,26.66
2019-04-30T12:25:21.919Z,26.60
2019-04-30T12:26:43.483Z,26.72
2019-04-30T12:27:23.855Z,26.46
2019-04-30T12:28:29.620Z,26.60
2019-04-30T12:29:22.430Z,26.54
2019-04-30T12:30:24.360Z,26.66
2019-04-30T12:31:24.862Z,26.65
2019-04-30T12:32:22.918Z,26.73
2019-04-30T12:33:22.923Z,27.40
2019-04-30T12:34:46.665Z,27.08
2019-04-30T12:36:54.807Z,27.09
2019-04-30T12:37:54.813Z,27.23
2019-04-30T12:38:54.813Z,27.31
2019-04-30T12:40:02.748Z,27.01
2019-04-30T12:40:55.316Z,26.90
2019-04-30T12:41:55.323Z,27.11
2019-04-30T12:42:55.318Z,27.48
2019-04-30T12:43:55.814Z,27.11
2019-04-30T12:44:55.816Z,27.59
2019-04-30T12:46:03.373Z,27.62
2019-04-30T12:46:55.818Z,27.40
2019-04-30T12:48:20.029Z,27.93
2019-04-30T12:48:56.543Z,27.53
2019-04-30T12:49:56.314Z,27.52
2019-04-30T12:52:31.563Z,26.97
2019-04-30T12:53:31.569Z,25.83
2019-04-30T12:54:31.569Z,25.67
2019-04-30T12:55:53.069Z,25.38
2019-04-30T12:56:35.571Z,24.98
2019-04-30T12:57:32.079Z,24.98
2019-04-30T12:58:32.070Z,25.42
2019-04-30T12:59:32.569Z,25.53
2019-04-30T13:00:32.571Z,25.74
2019-04-30T13:01:59.225Z,26.08
2019-04-30T13:02:32.571Z,26.59
2019-04-30T13:03:58.691Z,27.05
2019-04-30T13:04:33.070Z,27.13
2019-04-30T13:05:34.009Z,26.84
2019-04-30T13:06:33.532Z,27.35
2019-04-30T13:07:39.734Z,27.62
2019-04-30T13:08:33.822Z,26.39
2019-04-30T13:09:34.131Z,26.21
2019-04-30T13:10:55.230Z,26.91
2019-04-30T13:11:36.546Z,27.06
2019-04-30T13:12:38.674Z,27.11
2019-04-30T13:13:34.467Z,26.98
2019-04-30T13:14:36.953Z,27.03
2019-04-30T13:15:55.574Z,26.98
2019-04-30T13:16:55.569Z,26.76
2019-04-30T13:17:34.573Z,27.28
2019-04-30T13:18:39.371Z,27.12
2019-04-30T13:19:56.070Z,26.93
2019-04-30T13:22:09.322Z,26.64
2019-04-30T13:23:27.474Z,26.78
2019-04-30T13:24:10.534Z,27.03
2019-04-30T13:25:06.976Z,27.23
2019-04-30T13:26:08.977Z,26.79
2019-04-30T13:27:06.972Z,26.81
2019-04-30T13:29:42.241Z,27.66
2019-04-30T13:30:39.613Z,27.48
2019-04-30T13:31:59.753Z,27.74
2019-04-30T13:33:00.293Z,27.40
2019-04-30T13:33:40.460Z,27.38
2019-04-30T13:34:39.678Z,27.06
2019-04-30T13:35:42.549Z,27.12
2019-04-30T13:38:13.052Z,27.63
2019-04-30T13:39:11.082Z,27.90
2019-04-30T13:40:32.578Z,27.48
2019-04-30T13:42:46.304Z,27.80
2019-04-30T13:43:48.676Z,27.69
2019-04-30T13:44:46.813Z,26.65
2019-04-30T13:45:48.623Z,27.05
2019-04-30T13:46:50.313Z,27.53
2019-04-30T13:47:48.774Z,27.90
2019-04-30T13:48:47.309Z,27.91
2019-04-30T13:49:49.410Z,28.30
2019-04-30T13:50:47.311Z,28.60
2019-04-30T13:52:11.812Z,28.61
2019-04-30T13:52:49.746Z,28.61
2019-04-30T13:53:47.814Z,27.69
2019-04-30T13:54:47.812Z,27.34
2019-04-30T13:55:48.928Z,26.96
2019-04-30T13:56:51.812Z,26.36
2019-04-30T13:57:48.311Z,25.49
2019-04-30T13:58:48.317Z,24.68
2019-04-30T13:59:50.897Z,24.55
2019-04-30T14:00:50.823Z,24.64
2019-04-30T14:01:53.746Z,25.30
2019-04-30T14:02:52.830Z,25.83
2019-04-30T14:03:48.944Z,26.16
2019-04-30T14:04:49.312Z,26.51
2019-04-30T14:06:10.312Z,26.60
2019-04-30T14:06:49.313Z,26.76
2019-04-30T14:07:49.762Z,26.98
2019-04-30T14:10:24.214Z,26.01
2019-04-30T14:11:24.223Z,24.92
2019-04-30T14:12:24.219Z,25.57
2019-04-30T14:14:59.991Z,25.85
2019-04-30T14:15:55.996Z,25.66
2019-04-30T14:17:18.919Z,24.84
2019-04-30T14:17:56.497Z,24.90
2019-04-30T14:18:58.501Z,25.14
2019-04-30T14:20:04.432Z,25.45
2019-04-30T14:21:01.042Z,25.96
2019-04-30T14:23:49.532Z,25.67
2019-04-30T14:24:49.316Z,25.74
2019-04-30T14:25:56.346Z,26.23
2019-04-30T14:26:32.778Z,26.35
2019-04-30T14:27:54.489Z,26.78
2019-04-30T14:28:49.774Z,27.27
2019-04-30T14:29:49.546Z,26.81
2019-04-30T14:30:50.289Z,27.11
2019-04-30T14:31:32.773Z,27.12
2019-04-30T14:32:29.277Z,27.21
2019-04-30T14:33:29.466Z,26.54
2019-04-30T14:34:50.848Z,26.86
2019-04-30T14:35:29.775Z,26.49
2019-04-30T14:38:40.708Z,26.72
2019-04-30T14:39:14.613Z,26.83
2019-04-30T14:43:13.152Z,26.16